Time;durP1;ratioP1;P1;durP2;ratioP2;P2;SDS_P1;SDS_P2;PMS_P1;PMS_P2;Temp;Humidity;BMP_temperature;BMP_pressure;BME280_temperature;BME280_humidity;BME280_pressure;Samples;Min_cycle;Max_cycle;Signal;HPM_P1;HPM_P2
2023/05/01 04:05:09;;;;;;;3.67;2.97;;;9.60;99.90;;;;;;5751386;23;20231;-69
2023/05/01 04:07:35;;;;;;;2.85;2.42;;;9.60;99.90;;;;;;4935934;29;20200;-68
2023/05/01 04:10:01;;;;;;;3.53;2.97;;;9.60;99.90;;;;;;4936458;29;20165;-69
2023/05/01 04:12:27;;;;;;;5.68;2.58;;;9.60;99.90;;;;;;4936645;29;20575;-69
2023/05/01 04:14:52;;;;;;;2.73;2.50;;;9.70;99.90;;;;;;4936520;29;20181;-69
2023/05/01 04:17:18;;;;;;;3.47;3.17;;;9.70;99.90;;;;;;4936826;29;20556;-69
2023/05/01 04:19:46;;;;;;;2.53;2.33;;;9.70;99.90;;;;;;4937008;29;20259;-70
2023/05/01 04:22:12;;;;;;;4.13;2.70;;;9.70;99.90;;;;;;4936634;29;20179;-69
2023/05/01 04:24:37;;;;;;;3.70;2.83;;;9.70;99.90;;;;;;4936184;29;20228;-69
2023/05/01 04:27:04;;;;;;;4.23;3.30;;;9.70;99.90;;;;;;4936482;29;20196;-70
2023/05/01 04:29:30;;;;;;;3.55;3.25;;;9.70;99.90;;;;;;4936403;29;20169;-69
2023/05/01 04:31:56;;;;;;;3.53;3.33;;;9.70;99.90;;;;;;4919308;29;20180;-69
2023/05/01 04:34:21;;;;;;;3.27;3.07;;;9.70;99.90;;;;;;4935670;29;20181;-69
2023/05/01 04:36:47;;;;;;;3.50;2.30;;;9.70;99.90;;;;;;4935967;29;20444;-69
2023/05/01 04:39:14;;;;;;;2.95;2.75;;;9.70;99.90;;;;;;4936514;29;20181;-69
2023/05/01 04:41:40;;;;;;;3.33;3.13;;;9.70;99.90;;;;;;4936312;29;20184;-69
2023/05/01 04:44:06;;;;;;;3.13;2.83;;;9.70;99.90;;;;;;4935804;29;20289;-69
2023/05/01 04:46:32;;;;;;;3.57;2.73;;;9.70;99.90;;;;;;4936115;29;20229;-69
2023/05/01 04:48:57;;;;;;;3.50;2.88;;;9.70;99.90;;;;;;4936266;29;20193;-69
2023/05/01 04:51:23;;;;;;;4.57;4.17;;;9.80;99.90;;;;;;4919194;29;20173;-70
2023/05/01 04:53:48;;;;;;;4.37;3.10;;;9.80;99.90;;;;;;4936288;29;20169;-69
2023/05/01 04:56:14;;;;;;;3.57;3.27;;;9.80;99.90;;;;;;4936122;29;20192;-69
2023/05/01 04:58:41;;;;;;;5.20;3.40;;;9.80;99.90;;;;;;4936029;29;20166;-69
2023/05/01 05:01:06;;;;;;;4.60;3.35;;;9.80;99.90;;;;;;4936165;29;20175;-69
2023/05/01 05:03:32;;;;;;;3.07;2.47;;;9.80;99.90;;;;;;4935678;29;20528;-68
2023/05/01 05:05:57;;;;;;;5.40;3.33;;;9.90;99.90;;;;;;4934864;29;20197;-68
2023/05/01 05:08:23;;;;;;;4.07;3.30;;;9.90;99.90;;;;;;4935881;29;20190;-69
2023/05/01 05:10:49;;;;;;;5.03;3.40;;;9.90;99.90;;;;;;4936334;29;20202;-69
2023/05/01 05:13:14;;;;;;;3.53;3.23;;;9.90;99.90;;;;;;4935852;29;20648;-69
2023/05/01 05:15:40;;;;;;;2.53;2.33;;;10.00;99.90;;;;;;4936037;29;20194;-69
2023/05/01 05:18:05;;;;;;;3.00;2.70;;;10.00;99.90;;;;;;4936142;29;20517;-69
2023/05/01 05:20:31;;;;;;;5.40;4.57;;;10.10;99.90;;;;;;4935993;29;21303;-70
2023/05/01 05:22:56;;;;;;;3.60;3.03;;;10.10;99.90;;;;;;4935752;29;20643;-69
2023/05/01 05:25:23;;;;;;;2.83;2.63;;;10.20;99.90;;;;;;4936035;29;20205;-69
2023/05/01 05:27:48;;;;;;;3.58;2.97;;;10.20;99.90;;;;;;4935996;29;20174;-69
2023/05/01 05:30:14;;;;;;;4.03;2.87;;;10.30;99.90;;;;;;4936164;29;20614;-69
2023/05/01 05:32:40;;;;;;;2.15;2.00;;;10.30;99.90;;;;;;4936013;29;20166;-69
2023/05/01 05:35:06;;;;;;;2.83;2.57;;;10.40;99.90;;;;;;4918281;29;20208;-70
2023/05/01 05:37:32;;;;;;;3.63;3.00;;;10.50;99.90;;;;;;4935938;29;20175;-70
2023/05/01 05:39:57;;;;;;;2.63;2.43;;;10.50;99.90;;;;;;4936070;29;20211;-70
2023/05/01 05:42:23;;;;;;;3.17;2.87;;;10.70;99.90;;;;;;4939577;29;20644;-69
2023/05/01 05:44:48;;;;;;;2.50;2.40;;;10.70;99.90;;;;;;4938996;29;20661;-69
2023/05/01 05:47:14;;;;;;;2.37;2.17;;;10.80;99.90;;;;;;4939275;29;20242;-70
2023/05/01 05:49:40;;;;;;;2.70;2.50;;;10.80;99.90;;;;;;4939812;29;20167;-70
2023/05/01 05:52:05;;;;;;;6.40;3.57;;;10.80;99.90;;;;;;4939205;29;20291;-70
2023/05/01 05:54:31;;;;;;;2.73;2.40;;;10.80;99.90;;;;;;4938878;29;20171;-69
2023/05/01 05:56:56;;;;;;;2.90;2.57;;;10.90;99.90;;;;;;4938845;29;20190;-69
2023/05/01 05:59:22;;;;;;;3.17;2.60;;;10.90;99.90;;;;;;4939144;29;20177;-69
2023/05/01 06:01:47;;;;;;;2.67;2.47;;;10.90;99.90;;;;;;4939271;29;20175;-69
2023/05/01 06:04:13;;;;;;;2.33;2.23;;;10.90;99.90;;;;;;4938671;29;20729;-69
2023/05/01 06:06:39;;;;;;;3.30;3.10;;;10.90;99.90;;;;;;4938703;29;20184;-69
2023/05/01 06:09:06;;;;;;;3.77;3.40;;;11.00;99.90;;;;;;4939025;29;20707;-68
2023/05/01 06:11:32;;;;;;;3.05;2.85;;;11.00;99.90;;;;;;4938886;29;20197;-69
2023/05/01 06:13:59;;;;;;;2.53;2.40;;;10.90;99.90;;;;;;4938593;29;20213;-70
2023/05/01 06:16:24;;;;;;;3.80;3.50;;;10.90;99.90;;;;;;4938410;29;20254;-70
2023/05/01 06:18:50;;;;;;;3.03;2.83;;;11.00;99.90;;;;;;4938716;29;20176;-69
2023/05/01 06:21:16;;;;;;;3.70;3.03;;;11.00;99.90;;;;;;4938936;29;20181;-69
2023/05/01 06:23:41;;;;;;;2.77;2.57;;;11.00;99.90;;;;;;4938177;29;20186;-70
2023/05/01 06:26:07;;;;;;;2.43;2.27;;;11.00;99.90;;;;;;4938785;29;20198;-70
2023/05/01 06:28:32;;;;;;;2.70;2.50;;;11.00;99.90;;;;;;4938551;29;20173;-70
2023/05/01 06:30:58;;;;;;;2.70;2.50;;;11.00;99.90;;;;;;4925034;29;20181;-69
2023/05/01 06:33:24;;;;;;;2.83;2.43;;;11.00;99.90;;;;;;4935727;29;20580;-70
2023/05/01 06:35:49;;;;;;;2.90;2.37;;;11.00;99.90;;;;;;4921406;29;20191;-71
2023/05/01 06:38:15;;;;;;;3.53;3.33;;;11.00;99.90;;;;;;4938420;29;20528;-70
2023/05/01 06:40:40;;;;;;;3.03;2.80;;;11.10;99.90;;;;;;4921389;29;20178;-69
2023/05/01 06:43:06;;;;;;;2.20;2.00;;;11.10;99.90;;;;;;4938043;29;20179;-70
2023/05/01 06:45:32;;;;;;;2.70;2.50;;;11.10;99.90;;;;;;4925870;29;20211;-70
2023/05/01 06:47:58;;;;;;;2.85;2.65;;;11.20;99.90;;;;;;4919322;29;20638;-70
2023/05/01 06:50:23;;;;;;;3.30;2.70;;;11.30;99.90;;;;;;4919101;29;20191;-70
2023/05/01 06:52:49;;;;;;;2.90;2.70;;;11.40;99.90;;;;;;4920146;29;20184;-69
2023/05/01 06:55:15;;;;;;;3.37;2.90;;;11.50;99.90;;;;;;4928421;29;20222;-69
2023/05/01 06:57:41;;;;;;;3.07;2.87;;;11.50;99.90;;;;;;4919174;29;20178;-69
2023/05/01 07:00:09;;;;;;;2.93;2.77;;;11.60;99.90;;;;;;4918950;29;20419;-68
2023/05/01 07:02:36;;;;;;;3.27;3.00;;;11.60;99.90;;;;;;4902190;29;20435;-70
2023/05/01 07:05:02;;;;;;;3.43;3.07;;;11.70;99.90;;;;;;4918462;29;20465;-69
2023/05/01 07:07:29;;;;;;;3.67;2.40;;;11.70;99.90;;;;;;4918647;29;20432;-70
2023/05/01 07:09:55;;;;;;;4.10;3.53;;;11.70;99.90;;;;;;4918917;29;20477;-69
2023/05/01 07:12:22;;;;;;;4.73;3.10;;;11.80;99.90;;;;;;4919074;29;20392;-69
2023/05/01 07:14:47;;;;;;;3.80;2.57;;;11.90;99.90;;;;;;4918555;29;20180;-69
2023/05/01 07:17:13;;;;;;;2.50;2.40;;;12.00;99.90;;;;;;4918571;29;20974;-69
2023/05/01 07:19:38;;;;;;;7.33;4.27;;;12.00;99.90;;;;;;4901613;29;20177;-69
2023/05/01 07:22:04;;;;;;;3.67;3.30;;;12.10;99.90;;;;;;4901645;29;20180;-69
2023/05/01 07:24:30;;;;;;;3.30;3.10;;;12.30;99.90;;;;;;4918699;29;20209;-69
2023/05/01 07:26:55;;;;;;;3.60;3.30;;;12.40;99.90;;;;;;4918377;29;20193;-69
2023/05/01 07:29:21;;;;;;;2.23;2.13;;;12.40;99.90;;;;;;4918737;29;20283;-69
2023/05/01 07:31:47;;;;;;;2.50;2.30;;;12.40;99.90;;;;;;4901436;29;20192;-69
2023/05/01 07:34:12;;;;;;;2.67;2.47;;;12.40;99.90;;;;;;4918277;29;20193;-69
2023/05/01 07:36:38;;;;;;;2.83;2.63;;;12.40;99.90;;;;;;4918472;29;20436;-69
2023/05/01 07:39:05;;;;;;;4.90;2.77;;;12.40;99.90;;;;;;4905000;29;20185;-69
2023/05/01 07:41:30;;;;;;;3.73;3.50;;;12.40;99.90;;;;;;4918265;29;20184;-69
2023/05/01 07:43:59;;;;;;;2.37;2.17;;;12.40;99.90;;;;;;4917746;29;20948;-70
2023/05/01 07:46:25;;;;;;;2.83;2.50;;;12.40;99.90;;;;;;4918049;29;21270;-69
2023/05/01 07:48:51;;;;;;;3.83;3.40;;;12.50;99.90;;;;;;4919293;29;20800;-69
2023/05/01 07:51:17;;;;;;;2.90;2.33;;;12.60;99.90;;;;;;4901024;29;20437;-70
2023/05/01 07:53:45;;;;;;;3.03;2.80;;;12.70;99.90;;;;;;4917775;29;20184;-70
2023/05/01 07:56:10;;;;;;;2.57;2.37;;;12.80;99.90;;;;;;4917851;29;20447;-70
2023/05/01 07:58:36;;;;;;;3.77;3.47;;;12.90;99.90;;;;;;4923874;29;20937;-69
2023/05/01 08:01:03;;;;;;;3.47;3.17;;;13.00;99.90;;;;;;4936429;29;20183;-70
2023/05/01 08:03:29;;;;;;;3.10;3.00;;;13.10;99.90;;;;;;4936164;29;20734;-70
2023/05/01 08:05:55;;;;;;;3.10;2.80;;;13.20;99.90;;;;;;4917504;29;20542;-70
2023/05/01 08:08:21;;;;;;;3.57;2.43;;;13.40;99.90;;;;;;4917677;29;20411;-70
2023/05/01 08:10:47;;;;;;;3.07;2.87;;;13.50;99.90;;;;;;4917924;29;20402;-68
2023/05/01 08:13:13;;;;;;;4.07;3.20;;;13.70;99.90;;;;;;4900507;29;20265;-70
2023/05/01 08:15:41;;;;;;;3.53;3.23;;;13.90;99.90;;;;;;4933150;29;20955;-68
2023/05/01 08:18:07;;;;;;;2.77;2.57;;;14.10;99.90;;;;;;4919455;29;20431;-70
2023/05/01 08:20:35;;;;;;;3.87;3.57;;;14.20;99.90;;;;;;4936624;29;20416;-70
2023/05/01 08:23:01;;;;;;;4.23;2.93;;;14.30;99.90;;;;;;4919193;29;20425;-70
2023/05/01 08:25:26;;;;;;;2.73;2.37;;;14.40;99.90;;;;;;4935535;29;21026;-70
2023/05/01 08:27:52;;;;;;;3.90;3.60;;;14.50;99.90;;;;;;4936351;29;20879;-70
2023/05/01 08:30:18;;;;;;;2.73;2.27;;;14.60;99.90;;;;;;4936891;29;20174;-70
2023/05/01 08:32:43;;;;;;;3.40;3.10;;;14.70;99.90;;;;;;4936255;29;20209;-69
2023/05/01 08:35:09;;;;;;;3.43;3.13;;;14.80;99.90;;;;;;4924465;29;20190;-70
2023/05/01 08:37:35;;;;;;;2.67;2.47;;;14.80;99.90;;;;;;4917377;29;20622;-69
2023/05/01 08:40:07;;;;;;;2.63;2.43;;;14.90;99.90;;;;;;4917490;29;20202;-70
2023/05/01 08:42:37;;;;;;;3.50;3.00;;;15.00;99.90;;;;;;4917342;29;20418;-70
2023/05/01 08:45:07;;;;;;;3.57;3.20;;;15.10;99.90;;;;;;4926572;29;20459;-69
2023/05/01 08:47:37;;;;;;;3.40;2.60;;;15.10;99.90;;;;;;4919122;29;20412;-69
2023/05/01 08:50:03;;;;;;;3.60;3.30;;;15.20;99.90;;;;;;4918803;29;20425;-70
2023/05/01 08:52:30;;;;;;;1.93;1.70;;;15.40;99.90;;;;;;4936143;29;20837;-69
2023/05/01 08:54:58;;;;;;;2.97;2.73;;;15.50;99.90;;;;;;4926539;29;20444;-69
2023/05/01 08:57:26;;;;;;;2.67;2.47;;;15.70;99.90;;;;;;4917517;29;20448;-69
2023/05/01 08:59:55;;;;;;;3.50;2.80;;;15.90;99.90;;;;;;4917013;29;20413;-69
2023/05/01 09:02:23;;;;;;;2.67;2.40;;;16.20;99.90;;;;;;4917352;29;20416;-69
2023/05/01 09:04:50;;;;;;;1.73;1.63;;;16.40;99.90;;;;;;4916881;29;20457;-69
2023/05/01 09:07:16;;;;;;;2.73;2.53;;;16.70;99.90;;;;;;4916784;29;20536;-70
2023/05/01 09:09:43;;;;;;;3.70;3.33;;;17.00;99.90;;;;;;4899900;29;20996;-69
2023/05/01 09:12:25;;;;;;;2.07;1.90;;;17.30;99.90;;;;;;4899848;29;20170;-69
2023/05/01 09:14:55;;;;;;;3.60;3.17;;;17.60;99.90;;;;;;4899974;29;20433;-69
2023/05/01 09:17:22;;;;;;;2.80;2.60;;;17.80;99.90;;;;;;4921173;29;20388;-69
2023/05/01 09:19:49;;;;;;;2.83;2.57;;;18.00;99.40;;;;;;4920999;29;20473;-69
2023/05/01 09:22:17;;;;;;;2.47;2.27;;;18.40;99.20;;;;;;4920859;29;20412;-69
2023/05/01 09:24:43;;;;;;;3.00;2.80;;;18.60;98.40;;;;;;4924442;29;20522;-69
2023/05/01 09:27:13;;;;;;;2.73;2.53;;;19.00;98.60;;;;;;4922443;29;20852;-69
2023/05/01 09:29:45;;;;;;;3.30;3.10;;;19.60;98.30;;;;;;4939593;29;20884;-69
2023/05/01 09:32:24;;;;;;;2.30;2.20;;;20.20;96.40;;;;;;4939680;29;20391;-69
2023/05/01 09:34:51;;;;;;;2.60;2.40;;;20.50;95.10;;;;;;4916568;29;20430;-69
2023/05/01 09:37:28;;;;;;;2.80;2.60;;;20.80;93.80;;;;;;4920674;29;20725;-69
2023/05/01 09:40:11;;;;;;;2.93;2.70;;;21.10;94.20;;;;;;4920448;29;20466;-69
2023/05/01 09:42:48;;;;;;;3.07;2.83;;;21.00;93.40;;;;;;4920574;29;20434;-69
2023/05/01 09:45:14;;;;;;;3.60;3.30;;;20.60;93.60;;;;;;4927680;29;20435;-69
2023/05/01 09:47:41;;;;;;;3.27;3.03;;;20.10;94.50;;;;;;4939433;29;20376;-69
2023/05/01 09:50:07;;;;;;;3.80;3.50;;;20.10;95.00;;;;;;4939146;29;20420;-69
2023/05/01 09:52:33;;;;;;;3.30;2.90;;;20.10;95.50;;;;;;4939333;29;20404;-69
2023/05/01 09:55:16;;;;;;;3.40;2.90;;;20.10;95.60;;;;;;4932675;29;20480;-69
2023/05/01 09:57:43;;;;;;;2.70;2.50;;;20.10;94.90;;;;;;4920116;29;20581;-69
2023/05/01 10:00:11;;;;;;;2.93;2.63;;;20.10;94.80;;;;;;4920033;29;20387;-69
2023/05/01 10:02:38;;;;;;;3.70;3.40;;;20.60;95.40;;;;;;4920060;29;20753;-69
2023/05/01 10:05:06;;;;;;;3.67;2.90;;;21.10;94.80;;;;;;4919903;29;20831;-69
2023/05/01 10:07:32;;;;;;;2.70;2.50;;;21.30;93.20;;;;;;4919854;29;20443;-69
2023/05/01 10:09:58;;;;;;;2.97;2.70;;;21.50;93.20;;;;;;4919878;29;20383;-69
2023/05/01 10:12:28;;;;;;;4.10;3.70;;;21.80;93.20;;;;;;4920163;29;20383;-69
2023/05/01 10:14:55;;;;;;;3.33;3.10;;;22.10;92.30;;;;;;4923464;29;20182;-69
2023/05/01 10:17:21;;;;;;;4.23;3.83;;;22.40;92.90;;;;;;4938876;29;20401;-68
2023/05/01 10:19:47;;;;;;;5.63;3.73;;;22.50;92.30;;;;;;4938857;29;20449;-68
2023/05/01 10:22:14;;;;;;;3.80;3.50;;;22.30;91.90;;;;;;4938784;29;20184;-68
2023/05/01 10:24:40;;;;;;;3.90;3.70;;;22.10;92.30;;;;;;4935621;29;20441;-70
2023/05/01 10:27:06;;;;;;;3.67;3.00;;;21.50;91.40;;;;;;4919002;29;20482;-70
2023/05/01 10:29:35;;;;;;;3.63;3.33;;;21.10;92.10;;;;;;4902686;29;20925;-68
2023/05/01 10:32:03;;;;;;;3.53;3.33;;;20.80;92.80;;;;;;4919490;29;20461;-68
2023/05/01 10:34:31;;;;;;;3.80;3.50;;;20.60;93.60;;;;;;4918698;29;20771;-70
2023/05/01 10:37:00;;;;;;;3.70;3.40;;;20.40;93.40;;;;;;4919108;29;20441;-67
2023/05/01 10:39:32;;;;;;;4.50;3.23;;;20.00;94.30;;;;;;4919350;29;20411;-69
2023/05/01 10:42:05;;;;;;;3.60;3.30;;;19.80;95.20;;;;;;4919249;29;20423;-69
2023/05/01 10:44:31;;;;;;;3.00;2.80;;;19.70;95.20;;;;;;4932825;29;20534;-69
2023/05/01 10:46:57;;;;;;;3.03;2.83;;;19.60;94.30;;;;;;4921146;29;20404;-69
2023/05/01 10:49:23;;;;;;;3.07;2.77;;;19.50;94.40;;;;;;4938237;29;20410;-69
2023/05/01 10:52:00;;;;;;;3.20;2.93;;;19.50;94.70;;;;;;4938042;29;20536;-69
2023/05/01 10:54:30;;;;;;;3.03;2.83;;;19.60;94.70;;;;;;4924345;29;20602;-69
2023/05/01 10:56:58;;;;;;;3.30;3.00;;;19.50;94.90;;;;;;4918760;29;20449;-69
2023/05/01 10:59:24;;;;;;;3.00;2.80;;;19.40;95.10;;;;;;4918867;29;20421;-69
2023/05/01 11:01:51;;;;;;;3.00;2.80;;;19.40;94.90;;;;;;4919000;29;20785;-69
2023/05/01 11:04:22;;;;;;;3.43;2.60;;;19.40;95.40;;;;;;4918399;29;20457;-68
2023/05/01 11:07:09;;;;;;;3.13;2.93;;;19.40;95.80;;;;;;4918740;29;20409;-70
2023/05/01 11:09:39;;;;;;;3.67;3.37;;;19.40;96.00;;;;;;4918895;29;20733;-69
2023/05/01 11:12:06;;;;;;;2.53;2.30;;;19.40;95.40;;;;;;4927522;29;20906;-69
2023/05/01 11:15:04;;;;;;;3.00;2.70;;;19.50;95.70;;;;;;4937271;29;20764;-69
2023/05/01 11:17:38;;;;;;;3.17;2.87;;;19.70;95.50;;;;;;4937777;29;20395;-69
2023/05/01 11:20:05;;;;;;;2.40;2.30;;;19.70;94.30;;;;;;4937650;29;20382;-69
2023/05/01 11:22:35;;;;;;;3.27;3.07;;;19.70;95.20;;;;;;4925231;29;20437;-70
2023/05/01 11:25:03;;;;;;;3.37;2.90;;;19.70;94.80;;;;;;4900750;29;20441;-67
2023/05/01 11:27:29;;;;;;;3.30;3.03;;;19.70;95.50;;;;;;4901362;29;20389;-67
2023/05/01 11:29:58;;;;;;;4.27;3.40;;;19.80;95.80;;;;;;4901309;29;20415;-68
2023/05/01 11:32:27;;;;;;;3.00;2.70;;;19.80;95.70;;;;;;4918534;29;20429;-68
2023/05/01 11:34:53;;;;;;;4.83;3.50;;;19.60;95.00;;;;;;4900856;29;20431;-68
2023/05/01 11:37:37;;;;;;;3.90;3.60;;;19.30;95.20;;;;;;4917576;29;20456;-69
2023/05/01 11:40:03;;;;;;;3.57;3.27;;;19.10;95.20;;;;;;4918276;29;20381;-69
2023/05/01 11:42:29;;;;;;;3.70;3.47;;;19.00;95.50;;;;;;4929297;29;20534;-69
2023/05/01 11:45:10;;;;;;;3.70;3.40;;;18.80;95.70;;;;;;4936759;29;20512;-70
2023/05/01 11:47:36;;;;;;;4.20;3.80;;;19.00;95.50;;;;;;4937535;29;20174;-69
2023/05/01 11:50:02;;;;;;;2.87;2.67;;;18.90;95.70;;;;;;4938066;29;20416;-70
2023/05/01 11:52:29;;;;;;;4.03;2.93;;;18.70;95.70;;;;;;4925797;29;20849;-69
2023/05/01 11:54:54;;;;;;;3.20;2.90;;;18.90;97.00;;;;;;4917976;29;20510;-69
2023/05/01 11:57:20;;;;;;;3.47;3.17;;;18.90;95.30;;;;;;4900812;29;20440;-69
2023/05/01 11:59:46;;;;;;;3.23;2.97;;;18.90;95.80;;;;;;4918364;29;20598;-69
2023/05/01 12:02:19;;;;;;;6.63;3.30;;;18.90;95.70;;;;;;4926220;29;20272;-70
2023/05/01 12:04:45;;;;;;;2.90;2.70;;;19.00;95.70;;;;;;4926185;29;20447;-69
2023/05/01 12:07:23;;;;;;;4.73;2.93;;;19.00;95.60;;;;;;4917455;29;20450;-69
2023/05/01 12:09:50;;;;;;;3.37;3.07;;;19.00;96.10;;;;;;4917668;29;20410;-67
2023/05/01 12:12:16;;;;;;;4.03;3.73;;;18.90;95.50;;;;;;4917771;29;20414;-68
2023/05/01 12:14:42;;;;;;;2.67;2.47;;;18.80;95.10;;;;;;4917606;29;20785;-68
2023/05/01 12:17:10;;;;;;;3.23;3.03;;;18.90;95.00;;;;;;4900280;29;20436;-69
2023/05/01 12:19:47;;;;;;;5.37;3.50;;;18.90;95.60;;;;;;4917210;29;20175;-69
2023/05/01 12:22:13;;;;;;;3.67;2.93;;;18.80;95.30;;;;;;4917513;29;20911;-69
2023/05/01 12:24:50;;;;;;;3.27;2.80;;;18.80;96.40;;;;;;4917200;29;20464;-69
2023/05/01 12:27:16;;;;;;;3.57;3.27;;;18.80;95.10;;;;;;4917535;29;20397;-70
2023/05/01 12:29:43;;;;;;;3.27;2.97;;;18.70;95.20;;;;;;4917258;29;20890;-69
2023/05/01 12:32:09;;;;;;;3.60;3.30;;;18.80;96.50;;;;;;4917392;29;20177;-69
2023/05/01 12:34:35;;;;;;;3.13;2.63;;;19.00;95.40;;;;;;4922151;29;20516;-69
2023/05/01 12:37:01;;;;;;;4.10;3.27;;;19.20;95.30;;;;;;4936014;29;20437;-68
2023/05/01 12:39:37;;;;;;;3.50;3.20;;;19.20;94.90;;;;;;4936293;29;20889;-70
2023/05/01 12:42:03;;;;;;;3.03;2.83;;;19.30;94.40;;;;;;4936160;29;20181;-70
2023/05/01 12:44:31;;;;;;;4.43;3.73;;;19.40;93.80;;;;;;4919481;29;20488;-69
2023/05/01 12:47:08;;;;;;;6.23;5.83;;;19.40;93.80;;;;;;4900029;29;20294;-70
2023/05/01 12:49:35;;;;;;;3.53;3.23;;;19.30;94.20;;;;;;4916904;29;20389;-69
2023/05/01 12:52:03;;;;;;;4.00;3.67;;;19.40;95.20;;;;;;4900168;29;20432;-68
2023/05/01 12:54:36;;;;;;;3.50;3.20;;;19.40;94.50;;;;;;4916995;29;20409;-70
2023/05/01 12:57:15;;;;;;;4.00;3.00;;;19.40;95.40;;;;;;4916905;29;20443;-69
2023/05/01 12:59:43;;;;;;;3.30;3.00;;;19.50;94.70;;;;;;4916906;29;20774;-69
2023/05/01 13:02:11;;;;;;;2.63;2.43;;;19.70;94.10;;;;;;4916831;29;20428;-69
2023/05/01 13:04:37;;;;;;;3.47;3.17;;;19.70;93.50;;;;;;4915477;29;20949;-67
2023/05/01 13:07:16;;;;;;;3.17;2.87;;;19.70;93.30;;;;;;4935490;29;20486;-68
2023/05/01 13:09:52;;;;;;;4.23;2.97;;;19.70;93.10;;;;;;4935678;29;20794;-67
2023/05/01 13:12:18;;;;;;;2.90;2.70;;;19.50;94.20;;;;;;4935838;29;20896;-69
2023/05/01 13:14:43;;;;;;;2.90;2.70;;;19.50;93.70;;;;;;4918405;29;20427;-70
2023/05/01 13:17:10;;;;;;;3.07;2.87;;;19.50;94.30;;;;;;4916874;29;20545;-69
2023/05/01 13:19:37;;;;;;;2.60;2.40;;;19.50;93.80;;;;;;4916883;29;20192;-69
2023/05/01 13:22:04;;;;;;;3.13;2.90;;;19.50;93.80;;;;;;4916903;29;20543;-69
2023/05/01 13:24:43;;;;;;;3.23;3.03;;;19.60;94.40;;;;;;4931027;29;20462;-69
2023/05/01 13:27:12;;;;;;;3.17;2.90;;;19.70;95.20;;;;;;4935646;29;20410;-69
2023/05/01 13:29:41;;;;;;;3.30;2.77;;;19.80;94.90;;;;;;4935606;29;20515;-69
2023/05/01 13:32:09;;;;;;;2.80;2.60;;;19.70;94.20;;;;;;4935806;29;20406;-69
2023/05/01 13:34:36;;;;;;;2.90;2.70;;;19.60;94.80;;;;;;4920035;29;20880;-68
2023/05/01 13:37:02;;;;;;;3.70;3.40;;;19.50;94.50;;;;;;4916616;29;20940;-67
2023/05/01 13:39:28;;;;;;;3.27;2.97;;;19.40;95.20;;;;;;4916660;29;20460;-70
2023/05/01 13:41:54;;;;;;;3.33;2.70;;;19.40;95.00;;;;;;4916701;29;20424;-70
2023/05/01 13:44:21;;;;;;;3.53;3.13;;;19.40;94.80;;;;;;4927617;29;20560;-69
2023/05/01 13:46:47;;;;;;;3.73;3.53;;;19.30;94.60;;;;;;4935292;29;20828;-68
2023/05/01 13:49:13;;;;;;;4.03;3.47;;;19.10;94.80;;;;;;4935555;29;20768;-70
2023/05/01 13:51:43;;;;;;;3.40;2.77;;;19.00;95.00;;;;;;4935511;29;20417;-70
2023/05/01 13:54:11;;;;;;;2.80;2.60;;;18.60;96.20;;;;;;4924659;29;20407;-67
2023/05/01 13:56:38;;;;;;;4.07;3.53;;;18.50;96.30;;;;;;4916404;29;20430;-69
2023/05/01 13:59:05;;;;;;;3.40;3.10;;;18.30;96.40;;;;;;4916934;29;20414;-69
2023/05/01 14:01:38;;;;;;;3.90;3.60;;;18.00;96.60;;;;;;4917927;29;20373;-69
2023/05/01 14:04:09;;;;;;;4.30;3.33;;;17.70;97.30;;;;;;4928837;29;20767;-68
2023/05/01 14:06:40;;;;;;;4.83;4.43;;;17.60;97.70;;;;;;4938889;29;20496;-68
2023/05/01 14:09:06;;;;;;;3.53;3.10;;;17.60;97.60;;;;;;4939134;29;20409;-69
2023/05/01 14:11:31;;;;;;;4.07;3.77;;;17.50;98.20;;;;;;4939017;29;20388;-69
2023/05/01 14:13:59;;;;;;;3.47;3.10;;;17.50;98.10;;;;;;4930080;29;20178;-68
2023/05/01 14:16:30;;;;;;;4.87;3.60;;;17.50;98.20;;;;;;4919867;29;20585;-69
2023/05/01 14:18:56;;;;;;;3.73;3.37;;;17.60;98.90;;;;;;4919884;29;20889;-68
2023/05/01 14:21:24;;;;;;;4.03;3.60;;;17.70;99.50;;;;;;4902758;29;20422;-68
2023/05/01 14:23:53;;;;;;;6.23;4.07;;;17.70;99.60;;;;;;4902635;29;21051;-69
2023/05/01 14:26:20;;;;;;;4.60;3.63;;;17.80;99.70;;;;;;4919657;29;20529;-69
2023/05/01 14:28:46;;;;;;;4.03;3.57;;;17.70;99.10;;;;;;4919637;29;20416;-68
2023/05/01 14:31:26;;;;;;;4.93;3.70;;;17.70;99.70;;;;;;4902604;29;20983;-67
2023/05/01 14:33:56;;;;;;;3.77;3.10;;;17.60;99.10;;;;;;4925293;29;20421;-69
2023/05/01 14:36:22;;;;;;;3.40;3.20;;;17.60;98.90;;;;;;4938446;29;20433;-69
2023/05/01 14:38:49;;;;;;;4.30;3.70;;;17.60;99.10;;;;;;4934111;29;20488;-68
2023/05/01 14:41:18;;;;;;;4.33;4.03;;;17.80;99.60;;;;;;4907315;29;20703;-68
2023/05/01 14:43:44;;;;;;;4.40;4.00;;;17.80;99.70;;;;;;4919259;29;20442;-68
2023/05/01 14:46:14;;;;;;;3.37;3.07;;;17.70;99.20;;;;;;4918987;29;20872;-68
2023/05/01 14:48:41;;;;;;;3.80;3.13;;;17.80;99.20;;;;;;4919318;29;20436;-69
2023/05/01 14:51:11;;;;;;;4.90;4.17;;;17.90;98.80;;;;;;4919369;29;20409;-69
2023/05/01 14:53:40;;;;;;;3.30;3.10;;;17.90;98.70;;;;;;4901954;29;20423;-68
2023/05/01 14:56:07;;;;;;;4.40;3.77;;;18.00;99.00;;;;;;4919148;29;20409;-69
2023/05/01 14:58:32;;;;;;;4.00;3.70;;;17.90;98.40;;;;;;4925468;29;20451;-69
2023/05/01 15:00:58;;;;;;;4.07;3.67;;;18.00;98.00;;;;;;4921030;29;20414;-68
2023/05/01 15:03:23;;;;;;;3.00;2.80;;;18.00;98.00;;;;;;4937674;29;20264;-69
2023/05/01 15:05:49;;;;;;;3.90;3.50;;;18.10;97.60;;;;;;4937605;29;20350;-67
2023/05/01 15:08:15;;;;;;;3.20;3.00;;;18.10;97.60;;;;;;4933518;29;20190;-67
2023/05/01 15:10:42;;;;;;;3.17;2.87;;;18.00;98.00;;;;;;4909437;29;20539;-69
2023/05/01 15:13:08;;;;;;;4.03;3.70;;;17.90;97.70;;;;;;4919369;29;20672;-69
2023/05/01 15:15:33;;;;;;;3.43;3.07;;;17.90;97.50;;;;;;4937802;29;20429;-69
2023/05/01 15:17:59;;;;;;;4.70;3.63;;;18.00;97.70;;;;;;4936732;29;20174;-69
2023/05/01 15:20:24;;;;;;;3.67;3.37;;;17.90;97.80;;;;;;4918895;29;20174;-69
2023/05/01 15:22:50;;;;;;;5.17;4.17;;;18.00;98.00;;;;;;4901695;29;20182;-68
2023/05/01 15:25:16;;;;;;;3.60;3.30;;;18.00;98.20;;;;;;4918207;29;20763;-68
2023/05/01 15:27:41;;;;;;;3.60;3.30;;;18.00;98.50;;;;;;4918725;29;20170;-69
2023/05/01 15:30:09;;;;;;;3.77;3.47;;;18.00;98.80;;;;;;4917912;29;20533;-69
2023/05/01 15:32:34;;;;;;;3.53;3.33;;;18.00;99.00;;;;;;4937700;29;20242;-69
2023/05/01 15:35:00;;;;;;;3.70;3.40;;;17.80;99.10;;;;;;4936954;29;20397;-70
2023/05/01 15:37:26;;;;;;;4.57;4.17;;;17.70;99.20;;;;;;4937490;29;20181;-68
2023/05/01 15:39:51;;;;;;;4.23;3.83;;;17.60;99.20;;;;;;4924132;29;20189;-69
2023/05/01 15:42:18;;;;;;;3.30;3.00;;;17.60;99.20;;;;;;4921863;29;20248;-69
2023/05/01 15:44:43;;;;;;;3.17;2.97;;;17.60;98.90;;;;;;4920317;29;20190;-68
2023/05/01 15:47:09;;;;;;;3.93;3.63;;;17.50;99.30;;;;;;4919961;29;20477;-69
2023/05/01 15:49:35;;;;;;;3.40;3.10;;;17.60;99.70;;;;;;4930827;29;20312;-69
2023/05/01 15:52:01;;;;;;;4.77;4.30;;;17.60;99.80;;;;;;4939215;29;20186;-69
2023/05/01 15:54:27;;;;;;;4.23;3.83;;;17.60;99.90;;;;;;4939519;29;20211;-69
2023/05/01 15:56:52;;;;;;;4.17;3.77;;;17.70;99.90;;;;;;4938828;29;20453;-69
2023/05/01 15:59:18;;;;;;;5.00;3.67;;;17.70;99.90;;;;;;4928767;29;20186;-69
2023/05/01 16:01:44;;;;;;;9.47;5.83;;;17.70;99.50;;;;;;4901225;29;20259;-67
2023/05/01 16:04:09;;;;;;;4.60;4.30;;;17.70;99.90;;;;;;4917771;29;20180;-68
2023/05/01 16:06:35;;;;;;;5.23;4.47;;;17.60;99.90;;;;;;4917787;29;20193;-69
2023/05/01 16:09:01;;;;;;;6.27;4.50;;;17.40;99.90;;;;;;4904886;29;20870;-68
2023/05/01 16:11:29;;;;;;;5.40;5.00;;;17.30;99.90;;;;;;4919738;29;20460;-70
2023/05/01 16:13:55;;;;;;;4.97;4.27;;;17.10;99.90;;;;;;4919036;29;20431;-70
2023/05/01 16:16:25;;;;;;;5.37;4.87;;;17.00;99.90;;;;;;4936331;29;20781;-69
2023/05/01 16:18:56;;;;;;;4.93;4.43;;;16.90;99.90;;;;;;4927590;29;20193;-68
2023/05/01 16:21:23;;;;;;;4.83;4.33;;;16.70;99.90;;;;;;4917580;29;20396;-68
2023/05/01 16:23:51;;;;;;;4.83;4.40;;;16.60;99.90;;;;;;4916475;29;20826;-69
2023/05/01 16:26:28;;;;;;;4.93;4.50;;;16.60;99.90;;;;;;4900311;29;20460;-65
2023/05/01 16:29:04;;;;;;;7.87;4.60;;;16.60;99.90;;;;;;4925526;29;20765;-66
2023/05/01 16:31:40;;;;;;;4.30;3.90;;;16.60;99.90;;;;;;4935939;29;20402;-70
2023/05/01 16:34:09;;;;;;;6.63;5.95;;;16.50;99.90;;;;;;4935672;29;20927;-68
2023/05/01 16:36:38;;;;;;;5.43;4.93;;;16.40;99.90;;;;;;4936347;29;20560;-68
2023/05/01 16:39:04;;;;;;;5.83;5.33;;;16.40;99.90;;;;;;4935457;29;20423;-67
2023/05/01 16:41:30;;;;;;;4.90;4.40;;;16.40;99.90;;;;;;4935902;29;20410;-68
2023/05/01 16:43:58;;;;;;;7.23;4.73;;;16.40;99.90;;;;;;4935870;29;20255;-69
2023/05/01 16:46:24;;;;;;;5.43;4.93;;;16.50;99.90;;;;;;4934838;29;20647;-72
2023/05/01 16:48:50;;;;;;;5.30;4.80;;;16.40;99.90;;;;;;4917266;29;20427;-69
2023/05/01 16:51:16;;;;;;;9.17;5.83;;;16.40;99.90;;;;;;4917346;29;20227;-70
2023/05/01 16:53:41;;;;;;;3.47;3.20;;;16.30;99.90;;;;;;4916658;29;20815;-66